sensor_id;sensor_type;location;lat;lon;timestamp;pressure;altitude;pressure_sealevel;temperature;humidity
36748;BME280;22716;51.556;5.080;2023-06-10T00:00:49;100726.31;;;24.40;56.33
36748;BME280;22716;51.556;5.080;2023-06-10T00:03:17;100725.47;;;24.39;56.49
36748;BME280;22716;51.556;5.080;2023-06-10T00:05:44;100725.06;;;24.33;56.75
36748;BME280;22716;51.556;5.080;2023-06-10T00:08:11;100730.28;;;24.34;56.56
36748;BME280;22716;51.556;5.080;2023-06-10T00:10:38;100726.44;;;24.26;56.41
36748;BME280;22716;51.556;5.080;2023-06-10T00:13:06;100725.25;;;24.30;57.06
36748;BME280;22716;51.556;5.080;2023-06-10T00:15:35;100726.22;;;24.29;56.51
36748;BME280;22716;51.556;5.080;2023-06-10T00:18:02;100738.94;;;24.25;56.80
36748;BME280;22716;51.556;5.080;2023-06-10T00:20:29;100735.66;;;24.22;56.79
36748;BME280;22716;51.556;5.080;2023-06-10T00:22:58;100738.22;;;24.23;57.32
36748;BME280;22716;51.556;5.080;2023-06-10T00:25:26;100730.50;;;24.19;57.39
36748;BME280;22716;51.556;5.080;2023-06-10T00:27:53;100728.88;;;24.16;56.64
36748;BME280;22716;51.556;5.080;2023-06-10T00:30:20;100741.44;;;24.16;57.50
36748;BME280;22716;51.556;5.080;2023-06-10T00:32:48;100726.31;;;24.15;57.17
36748;BME280;22716;51.556;5.080;2023-06-10T00:35:15;100725.56;;;24.13;57.39
36748;BME280;22716;51.556;5.080;2023-06-10T00:37:42;100727.47;;;24.11;57.63
36748;BME280;22716;51.556;5.080;2023-06-10T00:40:10;100737.41;;;24.09;56.98
36748;BME280;22716;51.556;5.080;2023-06-10T00:42:37;100722.91;;;23.98;57.16
36748;BME280;22716;51.556;5.080;2023-06-10T00:45:05;100722.09;;;23.98;57.60
36748;BME280;22716;51.556;5.080;2023-06-10T00:47:33;100729.03;;;24.01;58.33
36748;BME280;22716;51.556;5.080;2023-06-10T00:50:02;100724.09;;;23.94;58.05
36748;BME280;22716;51.556;5.080;2023-06-10T00:52:30;100730.53;;;23.92;57.62
36748;BME280;22716;51.556;5.080;2023-06-10T00:54:57;100719.66;;;23.81;57.53
36748;BME280;22716;51.556;5.080;2023-06-10T00:57:25;100732.94;;;23.82;58.19
36748;BME280;22716;51.556;5.080;2023-06-10T00:59:52;100728.00;;;23.76;58.18
36748;BME280;22716;51.556;5.080;2023-06-10T01:02:19;100731.84;;;23.72;58.76
36748;BME280;22716;51.556;5.080;2023-06-10T01:04:45;100725.75;;;23.70;59.21
36748;BME280;22716;51.556;5.080;2023-06-10T01:07:21;100729.47;;;23.68;59.12
36748;BME280;22716;51.556;5.080;2023-06-10T01:09:55;100727.28;;;23.60;59.04
36748;BME280;22716;51.556;5.080;2023-06-10T01:12:29;100728.34;;;23.58;59.05
36748;BME280;22716;51.556;5.080;2023-06-10T01:14:58;100722.38;;;23.54;59.27
36748;BME280;22716;51.556;5.080;2023-06-10T01:17:26;100709.03;;;23.40;59.33
36748;BME280;22716;51.556;5.080;2023-06-10T01:19:54;100728.97;;;23.49;59.17
36748;BME280;22716;51.556;5.080;2023-06-10T01:22:24;100723.81;;;23.46;59.27
36748;BME280;22716;51.556;5.080;2023-06-10T01:24:54;100728.72;;;23.39;59.95
36748;BME280;22716;51.556;5.080;2023-06-10T01:27:26;100718.28;;;23.34;60.38
36748;BME280;22716;51.556;5.080;2023-06-10T01:29:59;100717.25;;;23.23;60.20
36748;BME280;22716;51.556;5.080;2023-06-10T01:32:33;100726.69;;;23.28;60.40
36748;BME280;22716;51.556;5.080;2023-06-10T01:35:02;100730.63;;;23.23;60.45
36748;BME280;22716;51.556;5.080;2023-06-10T01:37:30;100715.50;;;23.09;60.66
36748;BME280;22716;51.556;5.080;2023-06-10T01:39:59;100721.50;;;23.13;61.07
36748;BME280;22716;51.556;5.080;2023-06-10T01:42:27;100732.38;;;23.10;60.57
36748;BME280;22716;51.556;5.080;2023-06-10T01:44:55;100725.81;;;23.01;61.61
36748;BME280;22716;51.556;5.080;2023-06-10T01:47:21;100734.84;;;22.99;61.09
36748;BME280;22716;51.556;5.080;2023-06-10T01:49:48;100725.41;;;22.93;61.69
36748;BME280;22716;51.556;5.080;2023-06-10T01:52:15;100723.06;;;22.88;61.22
36748;BME280;22716;51.556;5.080;2023-06-10T01:54:43;100731.44;;;22.82;61.59
36748;BME280;22716;51.556;5.080;2023-06-10T01:57:10;100729.91;;;22.78;62.02
36748;BME280;22716;51.556;5.080;2023-06-10T01:59:37;100728.13;;;22.79;62.35
36748;BME280;22716;51.556;5.080;2023-06-10T02:02:04;100731.09;;;22.74;61.91
36748;BME280;22716;51.556;5.080;2023-06-10T02:04:31;100738.50;;;22.69;62.49
36748;BME280;22716;51.556;5.080;2023-06-10T02:06:58;100731.81;;;22.62;62.58
36748;BME280;22716;51.556;5.080;2023-06-10T02:09:29;100737.16;;;22.62;62.62
36748;BME280;22716;51.556;5.080;2023-06-10T02:11:57;100727.09;;;22.52;62.75
36748;BME280;22716;51.556;5.080;2023-06-10T02:14:25;100736.34;;;22.46;63.32
36748;BME280;22716;51.556;5.080;2023-06-10T02:16:51;100727.88;;;22.40;64.67
36748;BME280;22716;51.556;5.080;2023-06-10T02:19:22;100733.03;;;22.43;63.92
36748;BME280;22716;51.556;5.080;2023-06-10T02:21:49;100735.78;;;22.41;64.12
36748;BME280;22716;51.556;5.080;2023-06-10T02:24:16;100732.63;;;22.34;64.83
36748;BME280;22716;51.556;5.080;2023-06-10T02:26:43;100731.94;;;22.31;64.79
36748;BME280;22716;51.556;5.080;2023-06-10T02:29:12;100737.38;;;22.29;65.03
36748;BME280;22716;51.556;5.080;2023-06-10T02:31:38;100735.00;;;22.25;65.10
36748;BME280;22716;51.556;5.080;2023-06-10T02:34:06;100743.78;;;22.27;65.12
36748;BME280;22716;51.556;5.080;2023-06-10T02:36:34;100747.75;;;22.20;65.74
36748;BME280;22716;51.556;5.080;2023-06-10T02:39:01;100738.41;;;22.13;66.27
36748;BME280;22716;51.556;5.080;2023-06-10T02:41:29;100743.13;;;22.08;66.43
36748;BME280;22716;51.556;5.080;2023-06-10T02:43:56;100740.84;;;22.02;67.00
36748;BME280;22716;51.556;5.080;2023-06-10T02:46:27;100735.78;;;21.97;67.54
36748;BME280;22716;51.556;5.080;2023-06-10T02:48:56;100746.56;;;21.96;67.64
36748;BME280;22716;51.556;5.080;2023-06-10T02:51:22;100737.78;;;21.94;67.14
36748;BME280;22716;51.556;5.080;2023-06-10T02:53:49;100746.91;;;21.90;67.33
36748;BME280;22716;51.556;5.080;2023-06-10T02:56:16;100736.94;;;21.77;68.76
36748;BME280;22716;51.556;5.080;2023-06-10T02:58:44;100737.59;;;21.81;68.53
36748;BME280;22716;51.556;5.080;2023-06-10T03:01:11;100739.59;;;21.77;68.60
36748;BME280;22716;51.556;5.080;2023-06-10T03:03:39;100742.25;;;21.77;69.17
36748;BME280;22716;51.556;5.080;2023-06-10T03:06:08;100741.81;;;21.69;69.82
36748;BME280;22716;51.556;5.080;2023-06-10T03:08:35;100743.66;;;21.69;69.97
36748;BME280;22716;51.556;5.080;2023-06-10T03:11:02;100743.16;;;21.62;69.87
36748;BME280;22716;51.556;5.080;2023-06-10T03:13:29;100749.34;;;21.63;70.61
36748;BME280;22716;51.556;5.080;2023-06-10T03:15:55;100737.63;;;21.65;69.95
36748;BME280;22716;51.556;5.080;2023-06-10T03:18:27;100742.69;;;21.70;70.63
36748;BME280;22716;51.556;5.080;2023-06-10T03:20:55;100738.84;;;21.60;70.81
36748;BME280;22716;51.556;5.080;2023-06-10T03:23:23;100748.66;;;21.59;70.85
36748;BME280;22716;51.556;5.080;2023-06-10T03:25:49;100752.44;;;21.55;71.08
36748;BME280;22716;51.556;5.080;2023-06-10T03:28:16;100751.91;;;21.49;72.01
36748;BME280;22716;51.556;5.080;2023-06-10T03:30:43;100741.81;;;21.40;71.54
36748;BME280;22716;51.556;5.080;2023-06-10T03:33:10;100760.88;;;21.48;72.48
36748;BME280;22716;51.556;5.080;2023-06-10T03:35:37;100761.91;;;21.45;72.62
36748;BME280;22716;51.556;5.080;2023-06-10T03:38:05;100760.19;;;21.44;72.73
36748;BME280;22716;51.556;5.080;2023-06-10T03:40:32;100753.13;;;21.43;72.81
36748;BME280;22716;51.556;5.080;2023-06-10T03:43:00;100748.81;;;21.41;72.63
36748;BME280;22716;51.556;5.080;2023-06-10T03:45:26;100761.91;;;21.45;73.30
36748;BME280;22716;51.556;5.080;2023-06-10T03:47:54;100755.19;;;21.38;73.57
36748;BME280;22716;51.556;5.080;2023-06-10T03:50:22;100755.53;;;21.32;73.59
36748;BME280;22716;51.556;5.080;2023-06-10T03:52:50;100733.44;;;21.14;74.03
36748;BME280;22716;51.556;5.080;2023-06-10T03:55:18;100764.22;;;21.36;74.01
36748;BME280;22716;51.556;5.080;2023-06-10T03:57:47;100765.84;;;21.38;73.82
36748;BME280;22716;51.556;5.080;2023-06-10T04:00:15;100765.84;;;21.38;74.57
36748;BME280;22716;51.556;5.080;2023-06-10T04:02:43;100765.84;;;21.38;74.44
36748;BME280;22716;51.556;5.080;2023-06-10T04:05:14;100763.28;;;21.37;74.24
36748;BME280;22716;51.556;5.080;2023-06-10T04:07:42;100777.22;;;21.42;74.26
36748;BME280;22716;51.556;5.080;2023-06-10T04:10:10;100763.13;;;21.40;74.70
36748;BME280;22716;51.556;5.080;2023-06-10T04:12:39;100769.03;;;21.45;74.34
36748;BME280;22716;51.556;5.080;2023-06-10T04:15:07;100772.41;;;21.48;74.33
36748;BME280;22716;51.556;5.080;2023-06-10T04:17:34;100774.09;;;21.49;74.56
36748;BME280;22716;51.556;5.080;2023-06-10T04:20:01;100769.56;;;21.51;74.04
36748;BME280;22716;51.556;5.080;2023-06-10T04:22:29;100775.84;;;21.50;74.28
36748;BME280;22716;51.556;5.080;2023-06-10T04:24:56;100779.78;;;21.59;74.45
36748;BME280;22716;51.556;5.080;2023-06-10T04:27:23;100781.50;;;21.60;73.80
36748;BME280;22716;51.556;5.080;2023-06-10T04:29:52;100782.03;;;21.51;74.77
36748;BME280;22716;51.556;5.080;2023-06-10T04:32:19;100784.69;;;21.51;74.82
36748;BME280;22716;51.556;5.080;2023-06-10T04:34:46;100788.06;;;21.54;74.65
36748;BME280;22716;51.556;5.080;2023-06-10T04:37:12;100781.69;;;21.57;74.77
36748;BME280;22716;51.556;5.080;2023-06-10T04:39:40;100787.72;;;21.60;74.10
36748;BME280;22716;51.556;5.080;2023-06-10T04:42:08;100788.88;;;21.55;74.62
36748;BME280;22716;51.556;5.080;2023-06-10T04:44:36;100788.72;;;21.58;74.77
36748;BME280;22716;51.556;5.080;2023-06-10T04:47:05;100790.28;;;21.62;74.52
36748;BME280;22716;51.556;5.080;2023-06-10T04:49:33;100789.50;;;21.60;74.73
36748;BME280;22716;51.556;5.080;2023-06-10T04:52:00;100792.19;;;21.60;74.46
36748;BME280;22716;51.556;5.080;2023-06-10T04:54:29;100794.41;;;21.67;74.34
36748;BME280;22716;51.556;5.080;2023-06-10T04:56:58;100795.44;;;21.81;73.99
36748;BME280;22716;51.556;5.080;2023-06-10T04:59:25;100793.44;;;22.00;72.66
36748;BME280;22716;51.556;5.080;2023-06-10T05:01:51;100796.31;;;22.11;73.05
36748;BME280;22716;51.556;5.080;2023-06-10T05:04:20;100799.47;;;22.33;71.88
36748;BME280;22716;51.556;5.080;2023-06-10T05:06:46;100801.59;;;22.42;71.67
36748;BME280;22716;51.556;5.080;2023-06-10T05:09:13;100765.50;;;22.21;71.32
36748;BME280;22716;51.556;5.080;2023-06-10T05:11:41;100795.25;;;22.29;71.40
36748;BME280;22716;51.556;5.080;2023-06-10T05:14:08;100778.63;;;22.10;71.47
36748;BME280;22716;51.556;5.080;2023-06-10T05:16:34;100800.38;;;22.18;71.93
36748;BME280;22716;51.556;5.080;2023-06-10T05:19:01;100792.94;;;22.23;71.96
36748;BME280;22716;51.556;5.080;2023-06-10T05:21:30;100797.78;;;22.16;71.92
36748;BME280;22716;51.556;5.080;2023-06-10T05:23:56;100798.06;;;22.12;73.12
36748;BME280;22716;51.556;5.080;2023-06-10T05:26:23;100799.50;;;22.17;72.46
36748;BME280;22716;51.556;5.080;2023-06-10T05:28:50;100797.84;;;22.30;71.62
36748;BME280;22716;51.556;5.080;2023-06-10T05:31:18;100796.50;;;22.38;71.54
36748;BME280;22716;51.556;5.080;2023-06-10T05:33:45;100790.41;;;22.36;71.27
36748;BME280;22716;51.556;5.080;2023-06-10T05:36:12;100785.97;;;22.50;70.85
36748;BME280;22716;51.556;5.080;2023-06-10T05:38:40;100794.88;;;22.79;69.81
36748;BME280;22716;51.556;5.080;2023-06-10T05:41:06;100803.38;;;22.71;70.18
36748;BME280;22716;51.556;5.080;2023-06-10T05:43:33;100804.16;;;22.58;70.63
36748;BME280;22716;51.556;5.080;2023-06-10T05:46:00;100783.47;;;22.61;70.25
36748;BME280;22716;51.556;5.080;2023-06-10T05:48:27;100802.16;;;22.77;69.61
36748;BME280;22716;51.556;5.080;2023-06-10T05:50:54;100791.16;;;22.81;69.32
36748;BME280;22716;51.556;5.080;2023-06-10T05:53:21;100799.78;;;22.86;68.88
36748;BME280;22716;51.556;5.080;2023-06-10T05:55:49;100799.00;;;22.84;68.83
36748;BME280;22716;51.556;5.080;2023-06-10T05:58:16;100799.41;;;22.93;68.86
36748;BME280;22716;51.556;5.080;2023-06-10T06:00:43;100790.59;;;22.91;69.05
36748;BME280;22716;51.556;5.080;2023-06-10T06:03:10;100801.84;;;22.96;68.07
36748;BME280;22716;51.556;5.080;2023-06-10T06:05:37;100797.94;;;22.87;68.74
36748;BME280;22716;51.556;5.080;2023-06-10T06:08:04;100802.44;;;23.01;68.28
36748;BME280;22716;51.556;5.080;2023-06-10T06:10:31;100808.91;;;23.11;68.30
36748;BME280;22716;51.556;5.080;2023-06-10T06:13:00;100807.78;;;23.15;67.87
36748;BME280;22716;51.556;5.080;2023-06-10T06:15:26;100806.63;;;23.19;66.60
36748;BME280;22716;51.556;5.080;2023-06-10T06:17:53;100809.88;;;23.24;67.02
36748;BME280;22716;51.556;5.080;2023-06-10T06:20:22;100807.38;;;23.35;66.17
36748;BME280;22716;51.556;5.080;2023-06-10T06:22:49;100804.34;;;23.41;65.37
36748;BME280;22716;51.556;5.080;2023-06-10T06:25:16;100808.78;;;23.55;65.46
36748;BME280;22716;51.556;5.080;2023-06-10T06:27:42;100811.19;;;23.59;65.13
36748;BME280;22716;51.556;5.080;2023-06-10T06:30:11;100805.09;;;23.57;63.68
36748;BME280;22716;51.556;5.080;2023-06-10T06:32:38;100814.06;;;23.56;64.20
36748;BME280;22716;51.556;5.080;2023-06-10T06:35:06;100810.38;;;23.71;63.83
36748;BME280;22716;51.556;5.080;2023-06-10T06:37:34;100811.03;;;23.75;63.89
36748;BME280;22716;51.556;5.080;2023-06-10T06:40:02;100813.50;;;23.78;63.92
36748;BME280;22716;51.556;5.080;2023-06-10T06:42:29;100816.63;;;23.84;63.69
36748;BME280;22716;51.556;5.080;2023-06-10T06:44:56;100817.03;;;23.78;63.37
36748;BME280;22716;51.556;5.080;2023-06-10T06:47:24;100822.19;;;23.81;63.45
36748;BME280;22716;51.556;5.080;2023-06-10T06:49:52;100818.38;;;23.85;62.65
36748;BME280;22716;51.556;5.080;2023-06-10T06:52:18;100813.75;;;23.87;62.89
36748;BME280;22716;51.556;5.080;2023-06-10T06:54:45;100810.88;;;23.90;62.76
36748;BME280;22716;51.556;5.080;2023-06-10T06:57:12;100821.19;;;23.96;62.53
36748;BME280;22716;51.556;5.080;2023-06-10T06:59:39;100820.47;;;24.07;61.90
36748;BME280;22716;51.556;5.080;2023-06-10T07:02:06;100821.41;;;24.20;60.71
36748;BME280;22716;51.556;5.080;2023-06-10T07:04:34;100821.53;;;24.31;60.41
36748;BME280;22716;51.556;5.080;2023-06-10T07:07:01;100830.22;;;24.35;60.58
36748;BME280;22716;51.556;5.080;2023-06-10T07:09:28;100820.06;;;24.40;60.38
36748;BME280;22716;51.556;5.080;2023-06-10T07:11:55;100834.22;;;24.42;59.71
36748;BME280;22716;51.556;5.080;2023-06-10T07:14:22;100806.34;;;24.32;59.09
36748;BME280;22716;51.556;5.080;2023-06-10T07:16:48;100837.88;;;24.53;59.21
36748;BME280;22716;51.556;5.080;2023-06-10T07:19:15;100836.25;;;24.64;58.79
36748;BME280;22716;51.556;5.080;2023-06-10T07:21:43;100833.91;;;24.72;58.29
36748;BME280;22716;51.556;5.080;2023-06-10T07:24:10;100841.66;;;24.76;58.17
36748;BME280;22716;51.556;5.080;2023-06-10T07:26:37;100847.75;;;24.78;58.11
36748;BME280;22716;51.556;5.080;2023-06-10T07:29:03;100842.88;;;24.85;57.39
36748;BME280;22716;51.556;5.080;2023-06-10T07:31:30;100834.50;;;24.89;56.69
36748;BME280;22716;51.556;5.080;2023-06-10T07:33:57;100844.13;;;25.04;56.22
36748;BME280;22716;51.556;5.080;2023-06-10T07:36:24;100836.09;;;25.04;55.71
36748;BME280;22716;51.556;5.080;2023-06-10T07:38:54;100851.75;;;25.11;55.05
36748;BME280;22716;51.556;5.080;2023-06-10T07:41:22;100845.22;;;25.15;55.08
36748;BME280;22716;51.556;5.080;2023-06-10T07:43:52;100849.41;;;25.19;54.46
36748;BME280;22716;51.556;5.080;2023-06-10T07:46:20;100817.16;;;24.95;54.15
36748;BME280;22716;51.556;5.080;2023-06-10T07:48:48;100850.88;;;25.23;54.29
36748;BME280;22716;51.556;5.080;2023-06-10T07:51:15;100848.72;;;25.28;53.38
36748;BME280;22716;51.556;5.080;2023-06-10T07:53:42;100854.00;;;25.42;52.76
36748;BME280;22716;51.556;5.080;2023-06-10T07:56:10;100847.22;;;25.49;52.70
36748;BME280;22716;51.556;5.080;2023-06-10T07:58:37;100849.91;;;25.49;52.29
36748;BME280;22716;51.556;5.080;2023-06-10T08:01:04;100842.84;;;25.48;52.01
36748;BME280;22716;51.556;5.080;2023-06-10T08:03:31;100850.22;;;25.57;52.16
36748;BME280;22716;51.556;5.080;2023-06-10T08:05:57;100853.38;;;25.51;52.04
36748;BME280;22716;51.556;5.080;2023-06-10T08:08:24;100849.47;;;25.55;51.12
36748;BME280;22716;51.556;5.080;2023-06-10T08:10:51;100850.41;;;25.67;51.31
36748;BME280;22716;51.556;5.080;2023-06-10T08:13:19;100841.91;;;25.73;50.90
36748;BME280;22716;51.556;5.080;2023-06-10T08:15:47;100838.72;;;25.68;51.44
36748;BME280;22716;51.556;5.080;2023-06-10T08:18:16;100852.19;;;25.79;50.47
36748;BME280;22716;51.556;5.080;2023-06-10T08:20:43;100852.47;;;25.87;50.04
36748;BME280;22716;51.556;5.080;2023-06-10T08:23:10;100852.78;;;25.95;49.63
36748;BME280;22716;51.556;5.080;2023-06-10T08:25:37;100850.84;;;25.97;48.83
36748;BME280;22716;51.556;5.080;2023-06-10T08:28:03;100855.13;;;25.99;49.06
36748;BME280;22716;51.556;5.080;2023-06-10T08:30:31;100846.47;;;26.07;48.43
36748;BME280;22716;51.556;5.080;2023-06-10T08:32:59;100853.06;;;26.15;48.05
36748;BME280;22716;51.556;5.080;2023-06-10T08:35:26;100845.00;;;26.15;47.98
36748;BME280;22716;51.556;5.080;2023-06-10T08:37:53;100849.88;;;26.22;48.52
36748;BME280;22716;51.556;5.080;2023-06-10T08:40:20;100849.44;;;26.28;47.93
36748;BME280;22716;51.556;5.080;2023-06-10T08:42:52;100854.34;;;26.34;48.33
36748;BME280;22716;51.556;5.080;2023-06-10T08:45:22;100849.72;;;26.36;47.63
36748;BME280;22716;51.556;5.080;2023-06-10T08:47:50;100853.53;;;26.44;47.95
36748;BME280;22716;51.556;5.080;2023-06-10T08:50:19;100851.97;;;26.53;47.32
36748;BME280;22716;51.556;5.080;2023-06-10T08:52:48;100856.88;;;26.59;47.01
36748;BME280;22716;51.556;5.080;2023-06-10T08:55:21;100861.03;;;26.63;45.83
36748;BME280;22716;51.556;5.080;2023-06-10T08:57:52;100856.28;;;26.66;45.50
36748;BME280;22716;51.556;5.080;2023-06-10T09:00:19;100851.78;;;26.67;45.25
36748;BME280;22716;51.556;5.080;2023-06-10T09:02:46;100846.41;;;26.67;45.56
36748;BME280;22716;51.556;5.080;2023-06-10T09:05:15;100847.97;;;26.69;45.25
36748;BME280;22716;51.556;5.080;2023-06-10T09:07:42;100853.84;;;26.74;45.78
36748;BME280;22716;51.556;5.080;2023-06-10T09:10:11;100846.34;;;26.80;45.61
36748;BME280;22716;51.556;5.080;2023-06-10T09:12:38;100842.41;;;26.84;44.64
36748;BME280;22716;51.556;5.080;2023-06-10T09:15:06;100846.69;;;26.86;44.82
36748;BME280;22716;51.556;5.080;2023-06-10T09:17:33;100848.91;;;26.92;44.32
36748;BME280;22716;51.556;5.080;2023-06-10T09:20:02;100846.97;;;26.94;44.09
36748;BME280;22716;51.556;5.080;2023-06-10T09:22:31;100841.38;;;26.97;43.84
36748;BME280;22716;51.556;5.080;2023-06-10T09:25:04;100851.63;;;27.03;43.83
36748;BME280;22716;51.556;5.080;2023-06-10T09:27:32;100845.78;;;27.09;43.67
36748;BME280;22716;51.556;5.080;2023-06-10T09:30:11;100835.38;;;27.05;42.74
36748;BME280;22716;51.556;5.080;2023-06-10T09:32:50;100854.44;;;27.13;43.66
36748;BME280;22716;51.556;5.080;2023-06-10T09:35:17;100843.94;;;27.21;43.08
36748;BME280;22716;51.556;5.080;2023-06-10T09:37:45;100842.69;;;27.25;42.30
36748;BME280;22716;51.556;5.080;2023-06-10T09:40:12;100852.00;;;27.32;42.57
36748;BME280;22716;51.556;5.080;2023-06-10T09:42:39;100849.69;;;27.39;42.99
36748;BME280;22716;51.556;5.080;2023-06-10T09:45:07;100847.72;;;27.41;42.98
36748;BME280;22716;51.556;5.080;2023-06-10T09:47:34;100847.50;;;27.44;42.67
36748;BME280;22716;51.556;5.080;2023-06-10T09:50:00;100852.41;;;27.50;43.06
36748;BME280;22716;51.556;5.080;2023-06-10T09:52:30;100851.16;;;27.54;41.86
36748;BME280;22716;51.556;5.080;2023-06-10T09:55:01;100844.31;;;27.61;41.86
36748;BME280;22716;51.556;5.080;2023-06-10T09:57:31;100847.13;;;27.70;41.19
36748;BME280;22716;51.556;5.080;2023-06-10T09:59:59;100844.03;;;27.75;40.55
36748;BME280;22716;51.556;5.080;2023-06-10T10:02:30;100843.06;;;27.76;41.06
36748;BME280;22716;51.556;5.080;2023-06-10T10:05:02;100840.97;;;27.79;40.10
36748;BME280;22716;51.556;5.080;2023-06-10T10:07:29;100841.56;;;27.83;39.54
36748;BME280;22716;51.556;5.080;2023-06-10T10:09:57;100838.16;;;27.81;39.20
36748;BME280;22716;51.556;5.080;2023-06-10T10:12:25;100832.41;;;27.86;40.16
36748;BME280;22716;51.556;5.080;2023-06-10T10:14:54;100839.13;;;27.91;39.52
36748;BME280;22716;51.556;5.080;2023-06-10T10:17:22;100827.34;;;27.92;39.17
36748;BME280;22716;51.556;5.080;2023-06-10T10:19:53;100816.25;;;27.86;39.30
36748;BME280;22716;51.556;5.080;2023-06-10T10:22:26;100835.53;;;28.02;38.96
36748;BME280;22716;51.556;5.080;2023-06-10T10:24:56;100820.22;;;28.02;38.73
36748;BME280;22716;51.556;5.080;2023-06-10T10:27:28;100824.72;;;28.13;38.86
36748;BME280;22716;51.556;5.080;2023-06-10T10:29:58;100823.63;;;28.15;38.25
36748;BME280;22716;51.556;5.080;2023-06-10T10:32:29;100814.13;;;28.00;37.98
36748;BME280;22716;51.556;5.080;2023-06-10T10:35:03;100822.44;;;28.08;38.22
36748;BME280;22716;51.556;5.080;2023-06-10T10:37:35;100826.31;;;28.15;37.73
36748;BME280;22716;51.556;5.080;2023-06-10T10:40:04;100828.50;;;28.21;37.40
36748;BME280;22716;51.556;5.080;2023-06-10T10:42:34;100818.31;;;28.25;36.65
36748;BME280;22716;51.556;5.080;2023-06-10T10:45:03;100829.19;;;28.34;37.17
36748;BME280;22716;51.556;5.080;2023-06-10T10:47:30;100823.06;;;28.32;37.15
36748;BME280;22716;51.556;5.080;2023-06-10T10:49:58;100819.63;;;28.30;37.33
36748;BME280;22716;51.556;5.080;2023-06-10T10:52:26;100807.09;;;28.41;36.83
36748;BME280;22716;51.556;5.080;2023-06-10T10:54:54;100825.91;;;28.52;36.12
36748;BME280;22716;51.556;5.080;2023-06-10T10:57:22;100826.63;;;28.54;35.93
36748;BME280;22716;51.556;5.080;2023-06-10T10:59:55;100824.53;;;28.57;35.12
36748;BME280;22716;51.556;5.080;2023-06-10T11:02:34;100809.63;;;28.53;35.85
36748;BME280;22716;51.556;5.080;2023-06-10T11:05:05;100821.97;;;28.56;34.98
36748;BME280;22716;51.556;5.080;2023-06-10T11:07:33;100822.28;;;28.62;35.35
36748;BME280;22716;51.556;5.080;2023-06-10T11:10:02;100816.66;;;28.65;34.71
36748;BME280;22716;51.556;5.080;2023-06-10T11:12:50;100813.59;;;28.70;34.92
36748;BME280;22716;51.556;5.080;2023-06-10T11:15:23;100818.72;;;28.73;35.68
36748;BME280;22716;51.556;5.080;2023-06-10T11:18:09;100818.19;;;28.79;34.92
36748;BME280;22716;51.556;5.080;2023-06-10T11:20:59;100814.81;;;28.86;34.67
36748;BME280;22716;51.556;5.080;2023-06-10T11:23:39;100804.03;;;28.86;34.02
36748;BME280;22716;51.556;5.080;2023-06-10T11:26:20;100806.06;;;28.94;33.68
36748;BME280;22716;51.556;5.080;2023-06-10T11:29:05;100809.25;;;29.09;34.17
36748;BME280;22716;51.556;5.080;2023-06-10T11:31:42;100809.38;;;29.07;33.55
36748;BME280;22716;51.556;5.080;2023-06-10T11:34:10;100799.59;;;29.06;34.21
36748;BME280;22716;51.556;5.080;2023-06-10T11:36:39;100807.00;;;29.14;34.21
36748;BME280;22716;51.556;5.080;2023-06-10T11:39:08;100799.06;;;29.22;34.00
36748;BME280;22716;51.556;5.080;2023-06-10T11:41:37;100804.81;;;29.28;33.13
36748;BME280;22716;51.556;5.080;2023-06-10T11:44:09;100795.91;;;29.37;33.17
36748;BME280;22716;51.556;5.080;2023-06-10T11:46:37;100787.25;;;29.43;33.36
36748;BME280;22716;51.556;5.080;2023-06-10T11:49:05;100783.47;;;29.56;33.93
36748;BME280;22716;51.556;5.080;2023-06-10T11:51:34;100796.69;;;29.68;33.57
36748;BME280;22716;51.556;5.080;2023-06-10T11:54:02;100793.28;;;29.76;33.12
36748;BME280;22716;51.556;5.080;2023-06-10T11:56:30;100787.03;;;29.75;32.39
36748;BME280;22716;51.556;5.080;2023-06-10T11:58:59;100789.16;;;29.72;32.71
36748;BME280;22716;51.556;5.080;2023-06-10T12:01:31;100790.16;;;29.71;33.21
36748;BME280;22716;51.556;5.080;2023-06-10T12:04:02;100791.91;;;29.81;32.46
36748;BME280;22716;51.556;5.080;2023-06-10T12:06:38;100783.66;;;29.92;32.37
36748;BME280;22716;51.556;5.080;2023-06-10T12:09:06;100781.09;;;30.00;31.66
36748;BME280;22716;51.556;5.080;2023-06-10T12:11:33;100771.16;;;29.91;31.06
36748;BME280;22716;51.556;5.080;2023-06-10T12:14:00;100779.84;;;30.05;30.88
36748;BME280;22716;51.556;5.080;2023-06-10T12:16:29;100781.69;;;30.14;30.79
36748;BME280;22716;51.556;5.080;2023-06-10T12:19:03;100776.84;;;30.27;30.89
36748;BME280;22716;51.556;5.080;2023-06-10T12:21:31;100773.84;;;30.30;31.02
36748;BME280;22716;51.556;5.080;2023-06-10T12:24:00;100777.13;;;30.33;31.31
36748;BME280;22716;51.556;5.080;2023-06-10T12:26:35;100776.25;;;30.33;30.85
36748;BME280;22716;51.556;5.080;2023-06-10T12:29:13;100777.97;;;30.34;31.28
36748;BME280;22716;51.556;5.080;2023-06-10T12:31:57;100779.09;;;30.50;30.89
36748;BME280;22716;51.556;5.080;2023-06-10T12:34:33;100781.97;;;30.59;29.92
36748;BME280;22716;51.556;5.080;2023-06-10T12:37:01;100778.78;;;30.73;29.69
36748;BME280;22716;51.556;5.080;2023-06-10T12:39:30;100775.03;;;30.83;29.45
36748;BME280;22716;51.556;5.080;2023-06-10T12:41:57;100769.19;;;30.97;29.10
36748;BME280;22716;51.556;5.080;2023-06-10T12:44:29;100774.00;;;31.03;29.81
36748;BME280;22716;51.556;5.080;2023-06-10T12:46:56;100766.53;;;31.15;29.16
36748;BME280;22716;51.556;5.080;2023-06-10T12:49:23;100772.22;;;31.22;28.96
36748;BME280;22716;51.556;5.080;2023-06-10T12:51:52;100772.91;;;31.24;28.95
36748;BME280;22716;51.556;5.080;2023-06-10T12:54:19;100767.50;;;31.24;29.81
36748;BME280;22716;51.556;5.080;2023-06-10T12:56:46;100765.78;;;31.32;29.10